Advance, MO

10:03 AM CST on March 01, 2015 (GMT -0600)
Cape Girardeau Regional | Change Station
CLOSE
Current Station
Airport
Location: Cape Girardeau,
Elevation: 341 ft
Nearby Weather Stations
Active Advisory: Winter Weather Statement Active Notice: Record Report, Local Storm Report

Elev 341 ft 37.23 °N, 89.57 °W | Updated 10 minutes ago

Overcast
Overcast
34 °F
Feels Like 30 °F
N
5
Wind Variable Wind from North

Today
High -- | Low -- °F
--% Chance of Precip.
Yesterday
High -- | Low -- °F
Precip. -- in
6:30 AM 5:53 PM
Waxing Gibbous, 86% visible
Pressure 30.38 in
Visibility 3.0 miles
Clouds Few 600 ft
Overcast 4100 ft
Windchill 30 °F
Dew Point 32 °F
Humidity 92%
Rainfall 0.14 in
Snow Depth Not available.
UV 1 out of 12
Pollen .80 out of 12
Air Quality Not available.
Flu Activity Not available.
METAR KCGI 011553Z AUTO 35004KT 3SM BR FEW006 OVC041 01/00 A3037 RMK AO2 SLP287 T00110000 TSNO

More Conditions Fewer Conditions

Pressure 30.38 in
Visibility 3.0 miles
Clouds Few 600 ft
Overcast 4100 ft
Windchill 30 °F
Dew Point 32 °F
Humidity 92%
Rainfall 0.14 in
Snow Depth Not available.
UV 1 out of 12
Pollen .80 out of 12
Air Quality Not available.
Flu Activity Not available.
METAR KCGI 011553Z AUTO 35004KT 3SM BR FEW006 OVC041 01/00 A3037 RMK AO2 SLP287 T00110000 TSNO

More Conditions Fewer Conditions

10-Day Weather Forecast

Almanac

Astronomy

Mar. 01, 2015 Rise Set
Actual Time
Civil Twilight
Nautical Twilight
Astronomical Twilight
Moon
Length of Visible Light
Length of Day
Tomorrow will be .
, % of the Moon is Illuminated

Today's Extremes

State Highs State Lows

Community

WunderPhotos

Upload Photos

1,801,440 photos uploaded!

WunderBlogs® & News

Nearby

Air Quality

  Air Quality AQ Index Pollutant
Not available.

Snow Depth

Station Depth Elevation

Earthquake Activity

City Distance Mag. Time & Date
Minimum magnitude displayed is 2.5.

Coastal Water Temperatures

Place Temperature

Nearby Weather Stations

Winter Weather Statement
Statement as of 10:00 AM CST on March 01, 2015

... Winter Weather Advisory is cancelled...

The National Weather Service in Paducah has cancelled the Winter
Weather Advisory.

Drizzle and/or snow flurries will likely continue through the
morning hours... but temperatures should remain above freezing and
no additional snow accumulation is expected... therefore the Winter
Weather Advisory has been cancelled for parts of the area.